Ames, KS

3:41 PM CDT on July 25, 2014 (GMT -0500)
Joe's Place (KKSCONCO1) Elev 1440 ft | 39.57 °N, 97.65 °W | Change Station
Active Advisory: Heat Advisory

Current weather conditions updated 2 seconds ago

Clear
Clear
103.0 °F
Feels Like 108 °F
N
0.0
Wind Variable Wind from WSW
Gusts 0.0 mph

Today is forecast to be Much Warmer than yesterday.

Today
High -- | Low -- °F
--% Chance of Precip.
Yesterday
High -- | Low -- °F
Precip. -- in
6:23 AM 8:49 PM
Waning Crescent, 1% visible
Pressure 29.69 in
Visibility 10.0 miles
Clouds Clear
Heat Index 108 °F
Dew Point 67 °F
Humidity 31%
Rainfall 0.00 in
Snow Depth Not available.
UV 11 out of 12
Pollen 7.70 out of 12
Air Quality Not available.
Flu Activity Not available.
METAR KCNK 251955Z AUTO 20010KT 10SM CLR 38/19 A2976 RMK AO2 SLP054 T03780189

More Conditions Fewer Conditions

Pressure 29.69 in
Visibility 10.0 miles
Clouds Clear
Heat Index 108 °F
Dew Point 67 °F
Humidity 31%
Rainfall 0.00 in
Snow Depth Not available.
UV 11 out of 12
Pollen 7.70 out of 12
Air Quality Not available.
Flu Activity Not available.
METAR KCNK 251955Z AUTO 20010KT 10SM CLR 38/19 A2976 RMK AO2 SLP054 T03780189

More Conditions Fewer Conditions

10-Day Weather Forecast

Almanac

Astronomy

Jul. 25, 2014 Rise Set
Actual Time 6:23 AM CDT 8:49 PM CDT
Civil Twilight 5:53 AM CDT 9:20 PM CDT
Nautical Twilight 5:15 AM CDT 9:58 PM CDT
Astronomical Twilight 4:32 AM CDT 10:40 PM CDT
Moon 5:24 AM CDT 7:48 PM CDT
Length of Visible Light 15h 27m
Length of Day
14h 26m
Tomorrow will be 1m 45s shorter.
Waning Crescent, 1% of the Moon is Illuminated
Today
Waning Crescent
Jul 26
New
Aug 3
First Quarter
Aug 10
Full
Aug 17
Last Quarter

Today's Extremes

State Highs State Lows

Community

WunderPhotos

Upload Photos

1,737,396 photos uploaded!

Nearby

Snow Depth

Station Depth Elevation
No new snow has been reported.

Earthquake Activity

City Distance Mag. Time & Date
No recent earthquake activity has been reported nearby.
Minimum magnitude displayed is 2.5.

Coastal Water Temperatures

Place Temperature
No Stations Reporting

Nearby Weather Stations

Station Location Temp. Heat Index Dew Point Humidity Wind Precip. Elev Updated Type
Joe's Place, Concordia, KS 103.0 °F 108 °F 67 °F 31% WSW  at  0.0 mph 0.00 in / hr 1440 ft 3:41 PM CDT Rapid Fire
Chancy's Pond, Delphos, KS 99.3 °F 106 °F 69 °F 38% South  at  12.0 mph 0.00 in / hr 1375 ft 3:41 PM CDT Rapid Fire
Simpson KS, Beloit, KS 106.9 °F 121 °F 73 °F 35% WSW  at  18.1 mph - / hr 1342 ft 3:31 PM CDT Normal
2 S of Pawnee, Courtland, KS 101.5 °F 109 °F 70 °F 36% SSW  at  5.1 mph 0.00 in / hr 1565 ft 3:41 PM CDT Rapid Fire

Show More Stations Show Fewer Stations